Time;durP1;ratioP1;P1;durP2;ratioP2;P2;SDS_P1;SDS_P2;PMS_P1;PMS_P2;Temp;Humidity;BMP_temperature;BMP_pressure;BME280_temperature;BME280_humidity;BME280_pressure;Samples;Min_cycle;Max_cycle;Signal;HPM_P1;HPM_P2
2021/04/26 00:00:27;;;;;;;14.88;10.65;;;17.90;72.70;;;;;;5066141;28;20066;-65
2021/04/26 00:02:55;;;;;;;15.85;10.63;;;18.00;72.10;;;;;;5063201;28;20108;-66
2021/04/26 00:05:23;;;;;;;13.25;10.20;;;18.10;72.20;;;;;;5065173;28;20024;-72
2021/04/26 00:07:50;;;;;;;15.48;10.10;;;18.30;70.80;;;;;;5065369;28;20027;-65
2021/04/26 00:10:18;;;;;;;12.18;8.80;;;18.40;70.70;;;;;;5066251;28;20743;-66
2021/04/26 00:12:47;;;;;;;15.88;11.43;;;18.50;70.00;;;;;;5067716;28;20021;-62
2021/04/26 00:15:20;;;;;;;17.90;10.57;;;18.50;70.60;;;;;;5066082;28;20555;-66
2021/04/26 00:17:49;;;;;;;13.57;9.40;;;18.60;70.00;;;;;;5065400;28;20538;-64
2021/04/26 00:20:20;;;;;;;15.60;9.30;;;18.80;69.50;;;;;;5065470;28;20859;-73
2021/04/26 00:22:48;;;;;;;14.32;8.80;;;19.00;68.80;;;;;;5064523;28;20506;-73
2021/04/26 00:25:16;;;;;;;13.68;8.77;;;19.10;69.20;;;;;;5066428;28;20017;-67
2021/04/26 00:27:43;;;;;;;11.98;7.78;;;19.30;68.60;;;;;;5065464;28;20090;-64
2021/04/26 00:30:15;;;;;;;11.15;7.05;;;19.50;68.10;;;;;;5065284;28;20082;-63
2021/04/26 00:32:43;;;;;;;12.60;7.93;;;19.70;67.10;;;;;;5063542;28;20029;-66
2021/04/26 00:35:11;;;;;;;9.68;7.13;;;19.90;66.50;;;;;;5063934;28;20426;-72
2021/04/26 00:37:39;;;;;;;13.70;10.15;;;20.10;66.40;;;;;;5064326;28;20848;-66
2021/04/26 00:40:08;;;;;;;7.45;6.07;;;20.10;65.80;;;;;;5065279;28;20039;-66
2021/04/26 00:42:36;;;;;;;8.85;5.88;;;20.30;65.20;;;;;;5066465;28;20025;-71
2021/04/26 00:45:08;;;;;;;9.00;5.85;;;20.40;64.90;;;;;;5069083;28;20044;-71
2021/04/26 00:47:39;;;;;;;;;;;20.40;64.20;;;;;;5066567;28;20056;-71
2021/04/26 00:50:09;;;;;;;7.72;4.68;;;20.40;64.00;;;;;;5069151;28;19908;-63
2021/04/26 00:52:37;;;;;;;9.93;7.75;;;20.40;64.70;;;;;;5067696;28;20029;-66
2021/04/26 00:55:06;;;;;;;12.73;7.63;;;20.30;66.40;;;;;;5069120;28;20024;-71
2021/04/26 00:57:33;;;;;;;8.10;4.97;;;20.50;64.00;;;;;;5066235;28;20420;-67
2021/04/26 01:00:01;;;;;;;10.45;5.28;;;20.70;63.40;;;;;;5067218;28;20021;-75
2021/04/26 01:02:28;;;;;;;7.53;4.88;;;21.00;63.10;;;;;;5067372;28;20032;-73
2021/04/26 01:04:56;;;;;;;7.55;4.50;;;21.20;62.00;;;;;;5067657;28;20033;-74
2021/04/26 01:07:24;;;;;;;8.95;4.40;;;21.40;62.10;;;;;;5067379;28;20028;-67
2021/04/26 01:09:51;;;;;;;9.10;4.88;;;21.60;61.10;;;;;;5070134;28;20024;-65
2021/04/26 01:12:24;;;;;;;9.73;5.68;;;21.80;61.10;;;;;;5068448;28;20807;-66
2021/04/26 01:15:01;;;;;;;9.52;4.85;;;22.00;59.60;;;;;;5068209;28;20048;-63
2021/04/26 01:17:33;;;;;;;11.15;5.63;;;22.00;59.60;;;;;;5067829;28;20036;-74
2021/04/26 01:20:00;;;;;;;6.78;4.72;;;22.10;60.20;;;;;;5071919;28;20036;-63
2021/04/26 01:22:51;;;;;;;8.40;4.93;;;22.20;58.50;;;;;;5068425;28;20095;-73
2021/04/26 01:25:27;;;;;;;5.97;5.18;;;22.50;57.10;;;;;;5069104;28;20074;-63
2021/04/26 01:28:12;;;;;;;8.70;5.15;;;22.60;56.60;;;;;;5067390;28;20098;-66
2021/04/26 01:30:56;;;;;;;6.43;4.63;;;22.80;56.60;;;;;;5070405;28;20133;-73
2021/04/26 01:33:28;;;;;;;8.70;5.32;;;22.60;55.00;;;;;;5066558;28;20106;-65
2021/04/26 01:35:59;;;;;;;8.32;5.35;;;22.40;55.70;;;;;;5079924;28;20023;-66
2021/04/26 01:38:35;;;;;;;6.32;4.90;;;22.50;55.00;;;;;;5067410;28;20027;-72
2021/04/26 01:41:03;;;;;;;8.07;4.72;;;22.50;55.20;;;;;;5067175;28;20033;-76
2021/04/26 01:43:32;;;;;;;8.60;5.28;;;22.70;54.20;;;;;;5067765;28;20024;-69
2021/04/26 01:46:05;;;;;;;7.43;4.95;;;22.50;54.10;;;;;;5067632;28;20124;-69
2021/04/26 01:48:35;;;;;;;8.25;5.05;;;22.50;55.20;;;;;;5066289;28;20087;-69
2021/04/26 01:51:05;;;;;;;8.82;5.53;;;22.80;54.90;;;;;;5068359;28;20108;-76
2021/04/26 01:53:33;;;;;;;10.13;5.35;;;23.00;56.00;;;;;;5055315;28;20116;-63
2021/04/26 01:56:03;;;;;;;9.45;5.53;;;23.20;53.00;;;;;;5070046;28;20033;-76
2021/04/26 01:58:31;;;;;;;6.57;4.80;;;23.20;53.10;;;;;;5070188;28;20025;-63
2021/04/26 02:00:59;;;;;;;7.97;6.07;;;23.50;52.80;;;;;;5070415;28;20020;-63
2021/04/26 02:03:28;;;;;;;8.90;5.40;;;23.60;52.10;;;;;;5068779;28;20025;-76
2021/04/26 02:05:57;;;;;;;7.93;4.75;;;23.70;51.10;;;;;;5070353;28;20043;-69
2021/04/26 02:08:25;;;;;;;10.43;4.85;;;23.70;50.00;;;;;;5068999;28;20024;-67
2021/04/26 02:10:53;;;;;;;10.10;5.20;;;23.80;51.50;;;;;;5069709;28;20027;-72
2021/04/26 02:13:25;;;;;;;11.55;5.25;;;23.80;51.50;;;;;;5069034;28;20032;-64
2021/04/26 02:15:54;;;;;;;7.72;4.75;;;24.00;49.90;;;;;;5070390;28;20463;-68
2021/04/26 02:18:23;;;;;;;8.30;5.13;;;23.90;50.40;;;;;;5069581;28;20024;-68
2021/04/26 02:20:50;;;;;;;9.57;5.25;;;24.10;51.00;;;;;;5069458;28;20171;-64
2021/04/26 02:23:18;;;;;;;7.20;4.93;;;24.30;47.30;;;;;;5067845;28;20056;-64
2021/04/26 02:25:46;;;;;;;6.32;4.55;;;24.30;46.90;;;;;;5071268;28;20028;-74
2021/04/26 02:28:13;;;;;;;6.32;4.25;;;24.10;46.70;;;;;;5070129;28;20021;-64
2021/04/26 02:30:40;;;;;;;5.80;3.85;;;24.00;46.80;;;;;;5069013;28;20033;-64
2021/04/26 02:33:15;;;;;;;6.65;4.03;;;24.00;47.30;;;;;;5068852;28;20064;-71
2021/04/26 02:35:51;;;;;;;5.45;4.05;;;24.10;46.60;;;;;;5067603;28;20107;-72
2021/04/26 02:38:29;;;;;;;6.22;4.18;;;24.30;47.10;;;;;;5068639;28;20497;-66
2021/04/26 02:41:05;;;;;;;7.07;4.88;;;24.50;45.70;;;;;;5067132;28;20017;-72
2021/04/26 02:43:37;;;;;;;29.30;7.80;;;24.60;47.90;;;;;;5068436;28;20020;-68
2021/04/26 02:46:05;;;;;;;;;;;24.70;47.20;;;;;;5101142;22;20052;-64
2021/04/26 02:48:33;;;;;;;12.25;5.00;;;24.50;47.70;;;;;;5060323;28;19905;-67
2021/04/26 02:51:01;;;;;;;6.90;4.70;;;24.70;46.60;;;;;;5057667;28;20025;-67
2021/04/26 02:53:31;;;;;;;5.95;4.28;;;24.70;46.10;;;;;;5056300;28;20017;-63
2021/04/26 02:56:05;;;;;;;7.28;4.65;;;24.70;45.00;;;;;;5058505;28;20029;-71
2021/04/26 02:58:34;;;;;;;11.15;4.40;;;24.60;45.40;;;;;;5058434;28;20027;-71
2021/04/26 03:01:05;;;;;;;5.65;4.30;;;24.30;46.40;;;;;;5057821;28;20037;-65
2021/04/26 03:03:34;;;;;;;9.23;6.78;;;24.40;46.20;;;;;;5060296;28;20049;-67
2021/04/26 03:06:03;;;;;;;8.73;7.05;;;24.40;48.00;;;;;;5056780;28;20020;-64
2021/04/26 03:08:31;;;;;;;8.25;4.32;;;24.70;46.50;;;;;;5063757;28;20031;-67
2021/04/26 03:10:59;;;;;;;6.90;5.00;;;24.90;44.30;;;;;;5062360;28;20471;-69
2021/04/26 03:13:29;;;;;;;6.50;3.92;;;24.90;45.10;;;;;;5056878;28;20036;-71
2021/04/26 03:15:57;;;;;;;8.32;3.83;;;25.00;45.10;;;;;;5058697;28;20415;-69
2021/04/26 03:18:25;;;;;;;10.43;5.00;;;25.10;44.30;;;;;;5058708;28;20017;-63
2021/04/26 03:20:54;;;;;;;4.57;3.75;;;25.10;44.50;;;;;;5055149;28;20033;-66
2021/04/26 03:23:24;;;;;;;12.75;7.13;;;25.30;44.30;;;;;;5054484;28;20024;-73
2021/04/26 03:25:55;;;;;;;7.35;6.10;;;25.40;43.30;;;;;;5061436;28;20036;-75
2021/04/26 03:28:23;;;;;;;6.35;3.90;;;25.60;43.00;;;;;;5064515;28;20020;-69
2021/04/26 03:30:51;;;;;;;7.70;4.75;;;25.40;43.20;;;;;;5064810;28;20059;-70
2021/04/26 03:33:19;;;;;;;5.72;4.68;;;25.30;44.90;;;;;;5064299;28;20028;-64
2021/04/26 03:35:47;;;;;;;7.25;4.40;;;25.40;45.10;;;;;;5062518;28;20029;-71
2021/04/26 03:38:17;;;;;;;7.47;5.18;;;25.50;43.60;;;;;;5064827;28;20468;-70
2021/04/26 03:40:44;;;;;;;9.55;4.32;;;25.50;44.70;;;;;;5061554;28;20032;-70
2021/04/26 03:43:14;;;;;;;7.72;6.07;;;25.40;43.40;;;;;;5063741;28;20442;-70
2021/04/26 03:45:42;;;;;;;5.45;4.50;;;25.30;43.60;;;;;;5063407;28;20024;-65
2021/04/26 03:48:10;;;;;;;9.18;4.60;;;25.30;43.30;;;;;;5057782;28;20107;-64
2021/04/26 03:50:37;;;;;;;11.02;5.22;;;25.40;42.90;;;;;;5062997;28;20170;-64
2021/04/26 03:53:05;;;;;;;9.38;4.78;;;25.40;43.60;;;;;;5059603;28;20043;-69
2021/04/26 03:55:32;;;;;;;7.22;4.13;;;25.50;43.70;;;;;;5052865;28;20115;-72
2021/04/26 03:57:59;;;;;;;7.35;4.22;;;25.60;42.70;;;;;;5053443;28;20029;-69
2021/04/26 04:00:27;;;;;;;5.60;3.55;;;25.60;43.50;;;;;;5054613;28;20139;-65
2021/04/26 04:02:54;;;;;;;7.47;4.30;;;25.80;42.10;;;;;;5054078;28;20390;-68
2021/04/26 04:05:21;;;;;;;9.93;4.18;;;25.50;41.20;;;;;;5054274;28;20428;-68
2021/04/26 04:07:49;;;;;;;7.25;4.32;;;25.30;41.70;;;;;;5054607;28;20012;-68
2021/04/26 04:10:18;;;;;;;6.93;4.20;;;25.30;42.30;;;;;;5057682;28;20032;-71
2021/04/26 04:12:45;;;;;;;12.55;5.07;;;25.20;42.10;;;;;;5056194;28;20471;-66
2021/04/26 04:15:12;;;;;;;9.88;3.70;;;25.10;42.10;;;;;;5057783;28;20024;-68
2021/04/26 04:17:40;;;;;;;5.95;3.70;;;25.20;41.40;;;;;;5056007;28;20044;-67
2021/04/26 04:20:09;;;;;;;7.18;4.00;;;25.20;40.60;;;;;;5055251;28;20079;-67
2021/04/26 04:22:37;;;;;;;6.10;4.28;;;25.20;41.90;;;;;;5053012;28;20021;-66
2021/04/26 04:25:06;;;;;;;5.38;3.72;;;25.10;41.00;;;;;;5051767;28;20024;-72
2021/04/26 04:27:34;;;;;;;9.68;4.05;;;25.20;43.00;;;;;;5053798;28;20457;-68
2021/04/26 04:30:03;;;;;;;6.60;3.88;;;25.10;42.40;;;;;;5053349;28;20378;-68
2021/04/26 04:32:30;;;;;;;8.73;3.88;;;25.10;42.50;;;;;;5052875;28;20098;-68
2021/04/26 04:34:58;;;;;;;6.82;4.50;;;25.20;42.60;;;;;;5053683;28;20013;-73
2021/04/26 04:37:25;;;;;;;5.05;3.85;;;25.20;42.80;;;;;;5038047;28;20391;-72
2021/04/26 04:39:53;;;;;;;6.50;4.20;;;25.20;42.80;;;;;;5052838;28;20421;-73
2021/04/26 04:42:20;;;;;;;4.93;3.88;;;25.40;42.20;;;;;;5053028;28;20059;-68
2021/04/26 04:44:47;;;;;;;6.95;3.92;;;25.40;41.80;;;;;;5053721;28;20024;-73
2021/04/26 04:47:15;;;;;;;10.63;4.53;;;25.30;41.90;;;;;;5045970;28;20710;-67
2021/04/26 04:49:42;;;;;;;11.05;4.25;;;25.20;41.90;;;;;;5042682;28;20029;-73
2021/04/26 04:52:09;;;;;;;4.53;3.60;;;25.00;42.50;;;;;;5042781;28;20017;-72
2021/04/26 04:54:37;;;;;;;8.85;4.25;;;24.80;43.00;;;;;;5043716;28;20033;-66
2021/04/26 04:57:04;;;;;;;6.13;4.05;;;24.80;43.20;;;;;;5042309;28;20017;-68
2021/04/26 04:59:31;;;;;;;6.90;3.95;;;24.90;42.60;;;;;;5043030;28;20079;-66
2021/04/26 05:01:59;;;;;;;7.15;4.30;;;24.90;43.30;;;;;;5042935;28;20025;-73
2021/04/26 05:04:26;;;;;;;7.45;4.45;;;25.10;42.40;;;;;;5040570;28;20025;-69
2021/04/26 05:06:54;;;;;;;8.15;3.97;;;25.10;42.60;;;;;;5042825;28;20454;-72
2021/04/26 05:09:22;;;;;;;6.18;3.92;;;25.10;42.00;;;;;;5031138;28;20399;-67
2021/04/26 05:11:49;;;;;;;5.57;3.67;;;25.10;42.80;;;;;;5040010;28;20033;-66
2021/04/26 05:14:16;;;;;;;4.65;3.78;;;25.10;42.80;;;;;;5041125;28;20028;-66
2021/04/26 05:16:44;;;;;;;6.38;3.78;;;25.20;44.20;;;;;;5034330;28;20033;-73
2021/04/26 05:19:12;;;;;;;5.88;3.55;;;25.20;42.10;;;;;;5041850;28;20048;-77
2021/04/26 05:21:41;;;;;;;5.72;3.70;;;25.00;42.30;;;;;;5043274;28;20391;-69
2021/04/26 05:24:09;;;;;;;6.65;3.88;;;24.80;43.20;;;;;;5040457;28;20025;-69
2021/04/26 05:26:37;;;;;;;3.88;3.35;;;24.80;42.90;;;;;;5040230;28;20071;-67
2021/04/26 05:29:04;;;;;;;8.30;4.13;;;24.80;42.90;;;;;;5043684;28;20668;-68
2021/04/26 05:31:32;;;;;;;7.63;4.30;;;24.80;43.40;;;;;;5046913;28;20029;-67
2021/04/26 05:33:59;;;;;;;8.70;4.47;;;24.90;43.80;;;;;;5046698;28;20895;-67
2021/04/26 05:36:27;;;;;;;8.80;4.43;;;24.90;47.10;;;;;;5038492;28;20466;-68
2021/04/26 05:38:54;;;;;;;18.45;14.65;;;25.10;44.60;;;;;;5046796;28;20021;-71
2021/04/26 05:41:21;;;;;;;6.07;4.32;;;25.30;45.10;;;;;;5044658;28;20033;-68
2021/04/26 05:43:48;;;;;;;6.97;4.80;;;25.40;43.30;;;;;;5045860;28;20017;-64
2021/04/26 05:46:16;;;;;;;8.07;4.15;;;25.60;43.50;;;;;;5048915;28;20273;-71
2021/04/26 05:48:43;;;;;;;9.13;4.10;;;25.80;42.50;;;;;;5055952;28;20114;-70
2021/04/26 05:51:10;;;;;;;7.75;4.30;;;25.50;41.40;;;;;;5058274;28;20241;-65
2021/04/26 05:53:38;;;;;;;7.15;4.38;;;25.70;44.30;;;;;;5058056;28;20089;-66
2021/04/26 05:56:05;;;;;;;8.48;4.72;;;25.90;43.40;;;;;;5058998;28;20029;-67
2021/04/26 05:58:32;;;;;;;5.95;3.60;;;26.20;42.20;;;;;;5063046;28;20029;-66
2021/04/26 06:01:00;;;;;;;7.47;3.83;;;26.30;42.00;;;;;;5060246;28;20430;-70
2021/04/26 06:03:28;;;;;;;11.88;4.15;;;26.30;41.90;;;;;;5060132;28;20482;-68
2021/04/26 06:05:56;;;;;;;8.13;4.15;;;26.40;43.40;;;;;;5041463;28;20028;-65
2021/04/26 06:08:25;;;;;;;5.40;3.80;;;26.40;42.70;;;;;;5060149;28;20020;-67
2021/04/26 06:10:52;;;;;;;6.13;3.40;;;26.30;43.50;;;;;;5060118;28;20032;-69
2021/04/26 06:13:19;;;;;;;8.02;4.43;;;26.40;41.40;;;;;;4355590;28;10000802;-69
2021/04/26 06:15:47;;;;;;;7.30;5.60;;;26.50;44.80;;;;;;5059944;28;20120;-64
2021/04/26 06:18:17;;;;;;;6.70;4.38;;;26.50;42.60;;;;;;5064862;28;20032;-69
2021/04/26 06:20:45;;;;;;;6.95;3.83;;;26.30;41.80;;;;;;5064598;28;20078;-69
2021/04/26 06:23:13;;;;;;;8.38;4.43;;;26.10;44.60;;;;;;5062608;28;20426;-69
2021/04/26 06:25:41;;;;;;;4.70;4.00;;;26.10;42.60;;;;;;5065919;28;20021;-70
2021/04/26 06:28:09;;;;;;;6.10;3.85;;;26.10;44.40;;;;;;5064358;28;20027;-67
2021/04/26 06:30:37;;;;;;;5.70;3.80;;;26.10;43.40;;;;;;5057987;28;20028;-69
2021/04/26 06:33:05;;;;;;;6.63;3.78;;;26.10;41.70;;;;;;5062835;28;20039;-70
2021/04/26 06:35:32;;;;;;;5.70;3.88;;;26.10;41.30;;;;;;5060773;28;20068;-69
2021/04/26 06:38:00;;;;;;;7.78;4.22;;;26.00;41.60;;;;;;5062681;28;20119;-70
2021/04/26 06:40:27;;;;;;;6.10;3.90;;;25.80;44.50;;;;;;5058380;28;20448;-70
2021/04/26 06:42:54;;;;;;;4.82;3.42;;;25.60;43.20;;;;;;5057110;28;20494;-68
2021/04/26 06:45:23;;;;;;;11.13;4.30;;;25.40;44.40;;;;;;5060090;28;20017;-69
2021/04/26 06:47:54;;;;;;;9.10;4.40;;;25.30;45.10;;;;;;5061509;28;20047;-72
2021/04/26 06:50:22;;;;;;;9.50;4.30;;;25.10;46.10;;;;;;5064290;28;20031;-74
2021/04/26 06:52:53;;;;;;;7.82;4.40;;;24.90;45.80;;;;;;5056045;28;20474;-65
2021/04/26 06:55:25;;;;;;;7.07;4.35;;;24.60;46.50;;;;;;5058764;28;20049;-68
2021/04/26 06:57:53;;;;;;;7.88;4.13;;;24.40;47.00;;;;;;5061324;28;20087;-67
2021/04/26 07:00:22;;;;;;;10.27;4.28;;;23.90;48.10;;;;;;5060120;28;20131;-63
2021/04/26 07:02:52;;;;;;;7.07;4.13;;;23.60;48.90;;;;;;5064147;28;20055;-67
2021/04/26 07:05:20;;;;;;;8.50;4.25;;;23.30;49.50;;;;;;5065030;28;20079;-64
2021/04/26 07:07:48;;;;;;;7.82;4.20;;;23.10;49.80;;;;;;5063253;28;20658;-66
2021/04/26 07:10:15;;;;;;;4.47;3.42;;;22.90;49.20;;;;;;5061202;28;20029;-66
2021/04/26 07:12:43;;;;;;;8.35;3.83;;;22.60;50.20;;;;;;5059531;28;20029;-66
2021/04/26 07:15:12;;;;;;;5.65;3.70;;;22.20;51.10;;;;;;5064440;28;20032;-71
2021/04/26 07:17:40;;;;;;;9.82;4.45;;;21.90;52.20;;;;;;5046092;28;20040;-74
2021/04/26 07:20:09;;;;;;;6.03;4.20;;;21.50;53.00;;;;;;5064133;28;20087;-65
2021/04/26 07:22:36;;;;;;;8.43;4.50;;;21.00;54.60;;;;;;5062958;28;20487;-73
2021/04/26 07:25:05;;;;;;;7.05;4.70;;;20.60;55.60;;;;;;5062360;28;20476;-75
2021/04/26 07:27:33;;;;;;;6.00;4.10;;;20.30;56.40;;;;;;5064783;28;20056;-69
2021/04/26 07:30:00;;;;;;;7.15;4.53;;;20.00;57.40;;;;;;5063986;28;20120;-66
2021/04/26 07:32:28;;;;;;;10.50;4.93;;;19.80;58.20;;;;;;5062834;28;20021;-64
2021/04/26 07:34:55;;;;;;;13.63;5.65;;;19.60;59.00;;;;;;5062321;28;20135;-68
2021/04/26 07:37:24;;;;;;;7.75;5.80;;;19.40;58.70;;;;;;5063896;28;20040;-66
2021/04/26 07:39:53;;;;;;;12.05;8.27;;;19.30;60.20;;;;;;5043031;28;20035;-66
2021/04/26 07:42:21;;;;;;;13.57;8.20;;;19.20;63.10;;;;;;5063429;28;20071;-65
2021/04/26 07:44:48;;;;;;;14.38;8.32;;;19.10;65.00;;;;;;5063462;28;20094;-70
2021/04/26 07:47:16;;;;;;;13.15;9.45;;;18.90;67.30;;;;;;5061350;28;20494;-69
2021/04/26 07:49:43;;;;;;;13.27;9.80;;;18.80;68.90;;;;;;5062614;28;20037;-64
2021/04/26 07:52:10;;;;;;;13.70;10.60;;;18.70;69.80;;;;;;5063225;28;20086;-64
2021/04/26 07:54:37;;;;;;;13.00;10.23;;;18.60;70.70;;;;;;5056601;28;20420;-63
2021/04/26 07:57:07;;;;;;;16.23;11.18;;;18.40;72.40;;;;;;5055012;28;20126;-73
2021/04/26 07:59:35;;;;;;;14.55;10.52;;;18.40;73.20;;;;;;5051236;28;20024;-68
2021/04/26 08:02:02;;;;;;;12.55;9.70;;;18.40;73.60;;;;;;5057970;28;20024;-67
2021/04/26 08:04:30;;;;;;;15.90;11.20;;;18.30;73.60;;;;;;5040310;28;20025;-69
2021/04/26 08:06:57;;;;;;;15.55;11.18;;;18.20;74.00;;;;;;5055646;28;20047;-73
2021/04/26 08:09:24;;;;;;;12.38;10.10;;;18.20;74.40;;;;;;5041605;28;20569;-70
2021/04/26 08:11:52;;;;;;;14.15;10.07;;;18.10;74.50;;;;;;5050305;28;20107;-64
2021/04/26 08:14:19;;;;;;;13.73;10.45;;;18.10;74.60;;;;;;5054464;28;20020;-65
2021/04/26 08:16:46;;;;;;;11.95;9.48;;;18.00;74.50;;;;;;5051196;28;20546;-66
2021/04/26 08:19:16;;;;;;;11.98;8.98;;;18.00;74.70;;;;;;5050440;28;20502;-62
2021/04/26 08:21:45;;;;;;;16.17;8.77;;;18.00;74.60;;;;;;5050735;28;20466;-62
2021/04/26 08:24:13;;;;;;;12.30;8.82;;;17.90;75.20;;;;;;5048970;28;20592;-71
2021/04/26 08:26:40;;;;;;;13.85;8.75;;;17.90;75.50;;;;;;5051918;28;20029;-66
2021/04/26 08:29:08;;;;;;;13.25;9.13;;;17.80;75.80;;;;;;5053209;28;20609;-71
2021/04/26 08:31:36;;;;;;;12.38;7.97;;;17.80;77.00;;;;;;5059101;28;20028;-66
2021/04/26 08:34:04;;;;;;;12.00;8.00;;;17.80;77.30;;;;;;5039327;28;20463;-67
2021/04/26 08:36:31;;;;;;;10.93;7.13;;;17.70;78.10;;;;;;5056319;28;20180;-72
2021/04/26 08:38:59;;;;;;;13.02;8.05;;;17.70;77.70;;;;;;5049260;28;20025;-70
2021/04/26 08:41:27;;;;;;;10.55;7.10;;;17.60;77.20;;;;;;5053279;28;20056;-67
2021/04/26 08:43:54;;;;;;;12.27;7.43;;;17.60;78.50;;;;;;5051963;28;20425;-67
2021/04/26 08:46:21;;;;;;;9.10;7.45;;;17.50;77.50;;;;;;5052211;28;20029;-72
2021/04/26 08:48:49;;;;;;;7.93;6.25;;;17.50;78.70;;;;;;5048380;28;20025;-64
2021/04/26 08:51:16;;;;;;;11.45;8.32;;;17.40;77.40;;;;;;5050606;28;20064;-68
2021/04/26 08:53:43;;;;;;;11.73;7.05;;;17.40;77.70;;;;;;5050523;28;20029;-63
2021/04/26 08:56:11;;;;;;;13.40;7.35;;;17.40;77.30;;;;;;5057481;28;20107;-63
2021/04/26 08:58:38;;;;;;;9.07;6.85;;;17.30;78.10;;;;;;5048989;28;20407;-73
2021/04/26 09:01:06;;;;;;;13.65;7.22;;;17.30;78.10;;;;;;5050687;28;20577;-67
2021/04/26 09:03:35;;;;;;;9.65;5.97;;;17.20;78.60;;;;;;5049447;28;20060;-70
2021/04/26 09:06:04;;;;;;;14.30;7.10;;;17.20;78.70;;;;;;5052985;28;20028;-69
2021/04/26 09:08:31;;;;;;;14.27;7.30;;;17.20;79.10;;;;;;5055370;28;20025;-64
2021/04/26 09:11:07;;;;;;;8.88;5.68;;;17.10;80.30;;;;;;5053716;28;20104;-69
2021/04/26 09:13:47;;;;;;;10.50;6.32;;;17.00;78.70;;;;;;5053420;28;20046;-70
2021/04/26 09:16:20;;;;;;;11.30;5.65;;;16.90;78.90;;;;;;5055559;28;20036;-66
2021/04/26 09:18:47;;;;;;;8.43;5.07;;;16.80;78.70;;;;;;5058885;28;20219;-66
2021/04/26 09:21:18;;;;;;;8.35;5.43;;;16.80;79.20;;;;;;5054983;28;20020;-67
2021/04/26 09:23:46;;;;;;;6.85;4.88;;;16.70;79.30;;;;;;5055295;28;20114;-68
2021/04/26 09:26:34;;;;;;;11.15;6.13;;;16.70;79.70;;;;;;5055196;28;20052;-70
2021/04/26 09:29:28;;;;;;;7.72;5.85;;;16.60;80.10;;;;;;5053826;28;20028;-67
2021/04/26 09:32:17;;;;;;;9.45;5.75;;;16.60;80.50;;;;;;5050038;28;20124;-64
2021/04/26 09:34:45;;;;;;;10.43;5.43;;;16.60;80.10;;;;;;5054529;28;20028;-75
2021/04/26 09:37:25;;;;;;;8.35;5.88;;;16.50;80.30;;;;;;5056671;28;20510;-65
2021/04/26 09:40:05;;;;;;;10.32;6.80;;;16.50;80.60;;;;;;5057145;28;20112;-65
2021/04/26 09:42:48;;;;;;;10.25;6.32;;;16.40;81.00;;;;;;5054101;28;20040;-64
2021/04/26 09:45:27;;;;;;;14.10;9.20;;;16.30;81.00;;;;;;5053370;28;20087;-64
2021/04/26 09:48:15;;;;;;;14.05;9.65;;;16.30;81.70;;;;;;5050208;28;20539;-67
2021/04/26 09:50:58;;;;;;;16.27;12.15;;;16.20;81.80;;;;;;5054404;28;20029;-66
2021/04/26 09:53:28;;;;;;;10.93;8.30;;;16.00;82.30;;;;;;5053638;28;20090;-62
2021/04/26 09:55:57;;;;;;;11.38;8.68;;;16.00;83.10;;;;;;5053407;28;20090;-66
2021/04/26 09:58:25;;;;;;;9.25;7.80;;;15.90;83.30;;;;;;5051016;28;20113;-73
2021/04/26 10:00:53;;;;;;;14.15;8.55;;;15.70;83.80;;;;;;5052697;28;20487;-64
2021/04/26 10:03:20;;;;;;;12.13;8.25;;;15.50;84.60;;;;;;5059328;28;20074;-66
2021/04/26 10:05:48;;;;;;;9.80;8.13;;;15.40;85.40;;;;;;5038251;28;20045;-64
2021/04/26 10:08:16;;;;;;;9.82;7.63;;;15.40;85.60;;;;;;5053142;28;20053;-68
2021/04/26 10:10:46;;;;;;;12.88;8.20;;;15.40;85.40;;;;;;5052530;28;20036;-65
2021/04/26 10:13:14;;;;;;;11.90;8.13;;;15.30;86.20;;;;;;5055510;28;20039;-69
2021/04/26 10:15:42;;;;;;;13.00;7.32;;;15.20;86.70;;;;;;5052982;28;20086;-66
2021/04/26 10:18:12;;;;;;;13.90;7.47;;;15.10;87.20;;;;;;5056587;28;20243;-73
2021/04/26 10:20:42;;;;;;;9.40;7.93;;;15.00;87.90;;;;;;5034475;28;20899;-64
2021/04/26 10:23:44;;;;;;;12.63;7.80;;;14.90;88.60;;;;;;5051596;28;20177;-72
2021/04/26 10:26:40;;;;;;;13.13;7.63;;;14.70;88.60;;;;;;5012174;28;20033;-72
2021/04/26 10:29:37;;;;;;;14.48;8.18;;;14.60;89.00;;;;;;5022185;28;20037;-71
2021/04/26 10:32:09;;;;;;;29.08;21.67;;;14.60;89.20;;;;;;5044833;28;20052;-71
2021/04/26 10:34:42;;;;;;;15.93;10.02;;;14.60;88.90;;;;;;5054900;28;20540;-64
2021/04/26 10:37:23;;;;;;;20.23;11.32;;;14.60;89.20;;;;;;5056585;28;20103;-75
2021/04/26 10:39:59;;;;;;;13.65;9.65;;;14.50;89.20;;;;;;5053747;28;20031;-73
2021/04/26 10:42:41;;;;;;;13.88;11.18;;;14.40;90.00;;;;;;5056168;28;20028;-71
2021/04/26 10:45:24;;;;;;;18.00;10.90;;;14.40;90.20;;;;;;5055361;28;20350;-75
2021/04/26 10:48:04;;;;;;;17.50;9.73;;;14.40;90.20;;;;;;5056835;28;20050;-67
2021/04/26 10:50:37;;;;;;;17.83;9.82;;;14.30;90.30;;;;;;5055228;28;20113;-63
2021/04/26 10:53:07;;;;;;;17.02;11.13;;;14.30;90.10;;;;;;5035318;28;20059;-63
2021/04/26 10:55:34;;;;;;;21.15;10.57;;;14.20;90.30;;;;;;5055868;28;20171;-72
2021/04/26 10:58:05;;;;;;;20.25;11.10;;;14.30;90.40;;;;;;5058336;28;20037;-71
2021/04/26 11:00:38;;;;;;;21.77;11.15;;;14.20;90.70;;;;;;5058961;28;20036;-73
2021/04/26 11:03:09;;;;;;;18.42;10.73;;;14.20;90.60;;;;;;5045007;28;20024;-73
2021/04/26 11:05:44;;;;;;;20.75;10.70;;;14.10;90.70;;;;;;5047360;28;20376;-78
2021/04/26 11:08:33;;;;;;;17.55;9.55;;;14.10;90.80;;;;;;5033497;28;20382;-70
2021/04/26 11:11:42;;;;;;;20.50;10.45;;;14.10;90.60;;;;;;5050357;28;20400;-68
2021/04/26 11:14:04;;;;;;;15.27;10.23;;;14.00;90.80;;;;;;5045241;28;20049;-68
2021/04/26 11:16:58;;;;;;;20.45;10.13;;;14.00;90.80;;;;;;5046718;28;20040;-71
2021/04/26 11:19:26;;;;;;;16.95;8.50;;;14.00;90.80;;;;;;5046048;28;20040;-71
2021/04/26 11:21:56;;;;;;;15.00;9.32;;;14.00;90.80;;;;;;5045495;28;20048;-68
2021/04/26 11:24:29;;;;;;;17.73;9.60;;;14.00;90.80;;;;;;5044306;28;21369;-68
2021/04/26 11:27:13;;;;;;;12.15;9.63;;;14.00;91.00;;;;;;5045525;28;20029;-69
2021/04/26 11:29:44;;;;;;;13.13;10.15;;;14.00;90.90;;;;;;5046499;28;20052;-69
2021/04/26 11:32:22;;;;;;;18.52;10.63;;;14.00;90.80;;;;;;5045579;28;20424;-72
2021/04/26 11:35:12;;;;;;;14.35;11.00;;;14.10;90.50;;;;;;5045624;28;20021;-67
2021/04/26 11:37:38;;;;;;;14.63;10.10;;;14.00;90.40;;;;;;5044764;28;20036;-70
2021/04/26 11:40:20;;;;;;;14.57;10.60;;;13.90;90.80;;;;;;5059136;28;20029;-68
2021/04/26 11:42:48;;;;;;;17.00;11.70;;;13.90;90.90;;;;;;5058024;28;20029;-71
2021/04/26 11:45:21;;;;;;;16.35;10.93;;;13.90;91.00;;;;;;5051986;28;20402;-66
2021/04/26 11:47:51;;;;;;;18.10;11.20;;;13.90;91.00;;;;;;5047649;28;20059;-71
2021/04/26 11:50:18;;;;;;;16.13;10.70;;;13.90;90.90;;;;;;5045899;28;20172;-65
2021/04/26 11:52:46;;;;;;;13.73;10.00;;;13.90;90.90;;;;;;4354298;28;10000755;-68
2021/04/26 11:55:17;;;;;;;13.73;10.77;;;13.90;90.90;;;;;;5049214;28;20070;-73
2021/04/26 11:57:44;;;;;;;15.27;10.88;;;13.90;90.60;;;;;;5048615;28;20140;-64
2021/04/26 12:00:18;;;;;;;13.65;11.32;;;13.90;90.80;;;;;;5044818;28;20243;-65
2021/04/26 12:02:50;;;;;;;13.50;11.65;;;13.80;90.90;;;;;;5056835;28;20137;-68
2021/04/26 12:05:26;;;;;;;14.60;10.57;;;13.70;91.00;;;;;;5046398;28;20047;-65
2021/04/26 12:07:56;;;;;;;14.63;11.15;;;13.60;91.50;;;;;;5051835;28;20119;-65
2021/04/26 12:10:28;;;;;;;13.40;10.82;;;13.60;91.50;;;;;;5053293;28;20391;-71
2021/04/26 12:12:56;;;;;;;;;;;13.70;91.60;;;;;;5052413;28;20485;-66
2021/04/26 12:15:25;;;;;;;15.98;11.18;;;13.70;91.70;;;;;;5048308;28;19909;-65
2021/04/26 12:17:54;;;;;;;13.45;9.90;;;13.70;91.60;;;;;;5044470;28;20029;-66
2021/04/26 12:20:28;;;;;;;14.85;11.30;;;13.70;91.60;;;;;;5042440;28;20012;-66
2021/04/26 12:23:04;;;;;;;14.43;10.95;;;13.60;91.80;;;;;;5046366;28;20025;-65
2021/04/26 12:25:40;;;;;;;22.02;12.38;;;13.60;92.00;;;;;;5048927;28;20028;-72
2021/04/26 12:28:10;;;;;;;15.25;11.73;;;13.60;92.40;;;;;;5044171;28;20116;-65
2021/04/26 12:30:52;;;;;;;15.32;11.93;;;13.70;92.40;;;;;;5045892;28;20033;-69
2021/04/26 12:33:31;;;;;;;15.40;12.40;;;13.70;92.50;;;;;;5046403;28;20025;-73
2021/04/26 12:36:01;;;;;;;18.80;12.35;;;13.70;92.60;;;;;;5045504;28;20390;-65
2021/04/26 12:38:34;;;;;;;13.50;11.63;;;13.70;92.80;;;;;;5049152;28;20064;-72
2021/04/26 12:41:01;;;;;;;;;;;13.70;92.90;;;;;;5046565;28;20052;-69
2021/04/26 12:43:40;;;;;;;15.48;11.73;;;13.70;92.90;;;;;;5045839;28;19920;-73
2021/04/26 12:46:13;;;;;;;17.58;11.98;;;13.60;93.00;;;;;;5050321;28;20032;-65
2021/04/26 12:48:42;;;;;;;17.00;14.30;;;13.70;93.10;;;;;;5048031;28;20020;-64
2021/04/26 12:51:10;;;;;;;24.73;21.38;;;13.60;93.00;;;;;;5047065;28;20543;-64
2021/04/26 12:53:39;;;;;;;22.33;16.33;;;13.60;93.10;;;;;;5049463;28;20025;-69
2021/04/26 12:56:16;;;;;;;17.48;14.77;;;13.60;93.30;;;;;;5058495;28;20414;-68